Time;durP1;ratioP1;P1;durP2;ratioP2;P2;SDS_P1;SDS_P2;PMS_P1;PMS_P2;Temp;Humidity;BMP_temperature;BMP_pressure;BME280_temperature;BME280_humidity;BME280_pressure;Samples;Min_cycle;Max_cycle;Signal;HPM_P1;HPM_P2
2024/04/15 00:00:29;;;;;;;2.60;1.80;;;;;;;16.55;100.00;97117.53;6743437;21;20668;-82
2024/04/15 00:02:55;;;;;;;3.10;1.85;;;;;;;16.60;100.00;97109.44;6743627;21;20878;-81
2024/04/15 00:05:21;;;;;;;2.70;1.90;;;;;;;16.60;100.00;97107.59;6743252;21;20625;-81
2024/04/15 00:07:52;;;;;;;3.13;1.90;;;;;;;16.62;100.00;97109.94;6742986;21;20327;-81
2024/04/15 00:10:18;;;;;;;3.05;1.95;;;;;;;16.67;100.00;97109.84;6744059;21;20346;-80
2024/04/15 00:12:44;;;;;;;2.58;1.80;;;;;;;16.65;100.00;97122.72;6743579;21;20326;-80
2024/04/15 00:15:10;;;;;;;2.42;1.70;;;;;;;16.67;100.00;97144.59;6743954;21;20334;-81
2024/04/15 00:17:39;;;;;;;4.53;2.33;;;;;;;16.66;100.00;97126.97;6746815;21;20362;-82
2024/04/15 00:20:06;;;;;;;2.80;2.10;;;;;;;16.68;100.00;97119.47;6749842;21;20427;-82
2024/04/15 00:22:34;;;;;;;5.80;2.08;;;;;;;16.76;100.00;97144.72;6749423;21;20330;-83
2024/04/15 00:25:06;;;;;;;3.05;1.92;;;;;;;16.78;100.00;97134.50;6748553;21;20773;-81
2024/04/15 00:27:35;;;;;;;3.72;2.05;;;;;;;16.84;100.00;97168.84;6745891;21;20819;-80
2024/04/15 00:30:12;;;;;;;3.67;2.10;;;;;;;16.89;100.00;97117.97;6748371;21;20394;-83
2024/04/15 00:32:38;;;;;;;2.90;1.73;;;;;;;16.92;100.00;97122.72;6749098;21;20338;-82
2024/04/15 00:35:05;;;;;;;2.72;1.60;;;;;;;16.93;100.00;97104.78;6748037;21;20409;-82
2024/04/15 00:37:34;;;;;;;2.33;1.63;;;;;;;16.94;100.00;97123.22;6746868;21;20388;-82
2024/04/15 00:40:00;;;;;;;2.53;1.70;;;;;;;16.94;100.00;97128.56;6746558;21;20322;-82
2024/04/15 00:42:30;;;;;;;1.67;1.55;;;;;;;16.96;100.00;97109.56;6746768;21;20840;-82
2024/04/15 00:44:56;;;;;;;2.90;2.00;;;;;;;16.99;100.00;97100.91;6746371;21;20381;-82
2024/04/15 00:47:26;;;;;;;5.20;2.20;;;;;;;17.13;100.00;97092.91;6702403;21;20352;-82
2024/04/15 00:49:57;;;;;;;2.90;1.70;;;;;;;17.08;100.00;97093.00;6750883;21;20330;-81
2024/04/15 00:52:27;;;;;;;4.07;1.83;;;;;;;17.07;100.00;97086.84;6750432;21;20307;-81
2024/04/15 00:55:01;;;;;;;3.53;1.77;;;;;;;17.06;100.00;97074.59;6750884;21;20330;-82
2024/04/15 00:57:32;;;;;;;5.90;1.95;;;;;;;17.18;100.00;97090.09;6660158;21;20352;-82
2024/04/15 01:00:00;;;;;;;2.80;1.85;;;;;;;17.08;100.00;97087.63;6752684;21;20334;-82
2024/04/15 01:02:48;;;;;;;5.00;1.80;;;;;;;16.99;100.00;97093.69;6658774;21;20677;-83
2024/04/15 01:05:47;;;;;;;3.50;2.10;;;;;;;16.80;100.00;97086.88;6706287;21;20407;-82
2024/04/15 01:08:19;;;;;;;4.10;2.25;;;;;;;16.73;100.00;97081.94;6752459;21;20380;-82
2024/04/15 01:10:58;;;;;;;2.70;1.80;;;;;;;16.53;100.00;97077.75;6752935;21;20319;-82
2024/04/15 01:13:31;;;;;;;4.15;2.30;;;;;;;16.51;100.00;97073.78;6751758;21;20330;-82
2024/04/15 01:16:02;;;;;;;2.22;1.60;;;;;;;16.43;100.00;97072.59;6703191;21;20913;-82
2024/04/15 01:18:30;;;;;;;5.37;1.83;;;;;;;16.42;100.00;97071.00;6702584;21;20342;-83
2024/04/15 01:21:01;;;;;;;4.00;2.05;;;;;;;16.43;100.00;97066.47;6703119;21;20330;-82
2024/04/15 01:23:40;;;;;;;3.43;2.00;;;;;;;16.36;100.00;97063.38;6742946;21;20713;-82
2024/04/15 01:26:16;;;;;;;2.92;1.60;;;;;;;16.30;100.00;97064.56;6748498;21;20345;-82
2024/04/15 01:28:42;;;;;;;4.68;2.10;;;;;;;16.29;100.00;97055.78;6753426;21;20652;-81
2024/04/15 01:31:08;;;;;;;3.47;1.90;;;;;;;16.22;100.00;97048.16;6754850;21;20357;-80
2024/04/15 01:33:34;;;;;;;4.90;2.20;;;;;;;16.13;100.00;97044.56;6751403;21;20326;-81
2024/04/15 01:36:01;;;;;;;2.97;1.60;;;;;;;16.12;100.00;97045.66;6747088;21;20322;-81
2024/04/15 01:38:27;;;;;;;3.58;1.60;;;;;;;16.07;100.00;97050.31;6747569;21;20330;-80
2024/04/15 01:40:53;;;;;;;3.70;1.70;;;;;;;15.98;100.00;97049.38;6747565;21;20370;-80
2024/04/15 01:43:22;;;;;;;3.10;1.45;;;;;;;15.96;100.00;97052.34;6747513;21;20362;-81
2024/04/15 01:45:48;;;;;;;4.97;1.70;;;;;;;15.87;100.00;97048.75;6747293;21;20667;-81
2024/04/15 01:48:14;;;;;;;2.67;1.80;;;;;;;15.78;100.00;97048.66;6748392;21;20330;-82
2024/04/15 01:50:40;;;;;;;3.70;1.70;;;;;;;15.76;100.00;97052.69;6748484;21;20431;-81
2024/04/15 01:53:11;;;;;;;2.08;1.60;;;;;;;15.68;100.00;97050.69;6745454;21;20631;-82
2024/04/15 01:55:37;;;;;;;4.17;1.77;;;;;;;15.75;100.00;97054.56;6745488;21;20342;-82
2024/04/15 01:58:03;;;;;;;3.55;1.52;;;;;;;15.64;100.00;97047.00;6745918;21;20443;-80
2024/04/15 02:00:32;;;;;;;3.88;1.80;;;;;;;15.81;100.00;97034.72;6745905;21;20370;-80
2024/04/15 02:02:58;;;;;;;3.00;1.95;;;;;;;15.76;100.00;97029.47;6746127;21;20437;-80
2024/04/15 02:05:24;;;;;;;3.47;1.75;;;;;;;15.73;100.00;97031.91;6745896;21;20858;-81
2024/04/15 02:07:56;;;;;;;2.40;1.48;;;;;;;15.77;100.00;97027.59;6745968;21;20673;-80
2024/04/15 02:10:22;;;;;;;2.63;1.50;;;;;;;15.76;100.00;97026.81;6745992;21;20322;-80
2024/04/15 02:12:48;;;;;;;4.18;1.67;;;;;;;15.75;100.00;97025.22;6745888;21;20363;-81
2024/04/15 02:15:18;;;;;;;3.87;1.90;;;;;;;15.82;100.00;97033.63;6746217;21;20350;-81
2024/04/15 02:17:47;;;;;;;2.88;1.65;;;;;;;15.74;100.00;97046.84;6745668;21;20394;-81
2024/04/15 02:20:13;;;;;;;3.30;1.75;;;;;;;15.79;100.00;97044.88;6746914;21;20323;-80
2024/04/15 02:22:39;;;;;;;5.38;2.10;;;;;;;15.77;100.00;97038.28;6745691;21;20362;-81
2024/04/15 02:25:06;;;;;;;3.00;1.80;;;;;;;15.70;100.00;97025.31;6744841;21;20338;-81
2024/04/15 02:27:35;;;;;;;3.25;1.70;;;;;;;15.70;100.00;97029.84;6743741;21;20828;-79
2024/04/15 02:30:02;;;;;;;4.65;1.85;;;;;;;15.66;100.00;97029.63;6743954;21;20370;-80
2024/04/15 02:32:28;;;;;;;3.53;1.65;;;;;;;15.66;100.00;97029.63;6743318;21;20355;-81
2024/04/15 02:34:57;;;;;;;2.92;1.80;;;;;;;15.73;100.00;97022.03;6744211;21;20403;-81
2024/04/15 02:37:23;;;;;;;5.13;2.08;;;;;;;15.70;100.00;97024.50;6744532;21;20319;-80
2024/04/15 02:39:49;;;;;;;4.68;1.60;;;;;;;15.66;100.00;97010.16;6744188;21;20338;-81
2024/04/15 02:42:15;;;;;;;4.47;1.60;;;;;;;15.66;100.00;97018.94;6744492;21;20341;-81
2024/04/15 02:44:41;;;;;;;2.80;1.50;;;;;;;15.68;100.00;97024.78;6744731;21;20365;-80
2024/04/15 02:47:07;;;;;;;2.67;1.40;;;;;;;15.64;100.00;97001.63;6743827;21;20365;-80
2024/04/15 02:49:34;;;;;;;6.95;1.67;;;;;;;15.64;100.00;96994.44;6744992;21;20330;-81
2024/04/15 02:52:02;;;;;;;1.90;1.48;;;;;;;15.59;100.00;96989.19;6743864;21;20460;-81
2024/04/15 02:54:29;;;;;;;2.30;1.38;;;;;;;15.56;100.00;96987.13;6744392;21;20343;-80
2024/04/15 02:56:55;;;;;;;4.10;1.80;;;;;;;15.53;100.00;96986.88;6744684;21;20334;-81
2024/04/15 02:59:21;;;;;;;3.45;1.65;;;;;;;15.48;100.00;96993.09;6696775;21;20327;-81
2024/04/15 03:01:47;;;;;;;2.15;1.52;;;;;;;15.46;100.00;96989.91;6744170;21;20363;-81
2024/04/15 03:04:13;;;;;;;3.33;1.80;;;;;;;15.49;100.00;96987.44;6744556;21;20827;-82
2024/04/15 03:06:39;;;;;;;4.00;2.25;;;;;;;15.52;100.00;97009.28;6745781;21;20651;-80
2024/04/15 03:09:08;;;;;;;3.45;1.60;;;;;;;15.44;100.00;97000.06;6744813;21;20318;-81
2024/04/15 03:11:34;;;;;;;5.57;2.00;;;;;;;15.42;100.00;96992.34;6744306;21;20366;-81
2024/04/15 03:14:00;;;;;;;3.90;1.63;;;;;;;15.40;100.00;96989.22;6744893;21;20905;-79
2024/04/15 03:16:27;;;;;;;2.40;1.63;;;;;;;15.40;100.00;96980.41;6743673;21;20831;-80
2024/04/15 03:18:53;;;;;;;3.42;1.70;;;;;;;15.35;100.00;96986.59;6744304;21;20644;-79
2024/04/15 03:21:19;;;;;;;3.22;1.60;;;;;;;15.31;100.00;97012.28;6744811;21;20327;-80
2024/04/15 03:23:46;;;;;;;4.17;2.00;;;;;;;15.31;100.00;97008.81;6744029;21;20448;-80
2024/04/15 03:26:14;;;;;;;4.82;2.00;;;;;;;15.31;100.00;97020.28;6743864;21;20362;-80
2024/04/15 03:28:40;;;;;;;1.60;1.40;;;;;;;15.23;100.00;97012.16;6744403;21;20671;-79
2024/04/15 03:31:07;;;;;;;3.27;1.90;;;;;;;15.19;100.00;96989.78;6745082;21;20386;-80
2024/04/15 03:33:34;;;;;;;2.53;1.75;;;;;;;15.27;100.00;96970.47;6745528;21;20497;-82
2024/04/15 03:36:00;;;;;;;3.40;1.60;;;;;;;15.22;100.00;96983.91;6744246;21;20334;-79
2024/04/15 03:38:26;;;;;;;1.70;1.20;;;;;;;15.18;100.00;96973.03;6743910;21;20799;-78
2024/04/15 03:40:52;;;;;;;2.20;2.00;;;;;;;15.15;100.00;96954.16;6744266;21;20323;-80
2024/04/15 03:43:21;;;;;;;2.17;1.30;;;;;;;15.15;100.00;96944.28;6744125;21;20318;-79
2024/04/15 03:45:47;;;;;;;2.10;1.48;;;;;;;15.12;100.00;96936.84;6743795;21;20370;-79
2024/04/15 03:48:15;;;;;;;2.75;1.70;;;;;;;15.11;100.00;96937.91;6747600;21;20327;-81
2024/04/15 03:50:41;;;;;;;2.63;1.70;;;;;;;15.05;100.00;96941.75;6692163;21;20341;-82
2024/04/15 03:53:08;;;;;;;3.13;1.60;;;;;;;15.07;100.00;96951.06;6692413;21;20384;-82
2024/04/15 03:55:34;;;;;;;2.65;1.60;;;;;;;15.02;100.00;96953.00;6689725;21;20826;-82
2024/04/15 03:58:00;;;;;;;2.60;1.52;;;;;;;14.97;100.00;96956.53;6692504;21;20416;-82
2024/04/15 04:00:30;;;;;;;2.67;1.63;;;;;;;14.97;100.00;96945.06;6690532;21;20336;-83
2024/04/15 04:02:56;;;;;;;2.60;1.55;;;;;;;14.94;100.00;96938.47;6690347;21;20333;-82
2024/04/15 04:05:22;;;;;;;4.00;1.40;;;;;;;14.89;100.00;96933.19;6690719;21;20381;-83
2024/04/15 04:07:48;;;;;;;5.65;2.58;;;;;;;14.95;100.00;96940.06;6695530;21;20365;-80
2024/04/15 04:10:14;;;;;;;2.88;1.77;;;;;;;14.90;100.00;96950.78;6699891;21;20385;-80
2024/04/15 04:12:41;;;;;;;4.47;1.70;;;;;;;14.90;100.00;96961.44;6701308;21;20361;-81
2024/04/15 04:15:07;;;;;;;2.65;1.70;;;;;;;14.88;100.00;96968.94;6701269;21;20321;-80
2024/04/15 04:17:36;;;;;;;3.28;1.65;;;;;;;14.84;100.00;96981.25;6701073;21;20392;-81
2024/04/15 04:20:02;;;;;;;2.65;1.63;;;;;;;14.77;100.00;96988.81;6699656;21;20650;-79
2024/04/15 04:22:28;;;;;;;2.60;1.67;;;;;;;14.69;100.00;96986.78;6694611;21;20356;-79
2024/04/15 04:24:54;;;;;;;2.63;1.52;;;;;;;14.64;100.00;96981.53;6693570;21;20317;-79
2024/04/15 04:27:21;;;;;;;2.33;1.50;;;;;;;14.62;100.00;96978.34;6692980;21;20434;-78
2024/04/15 04:29:47;;;;;;;4.47;1.65;;;;;;;14.60;100.00;96967.19;6700063;21;20326;-80
2024/04/15 04:32:13;;;;;;;4.18;1.70;;;;;;;14.57;100.00;96971.22;6698650;21;20352;-80
2024/04/15 04:34:42;;;;;;;2.70;1.70;;;;;;;14.58;100.00;96975.47;6696999;21;20353;-81
2024/04/15 04:37:08;;;;;;;4.68;1.52;;;;;;;14.53;100.00;96972.06;6696257;21;20341;-80
2024/04/15 04:39:34;;;;;;;2.03;1.50;;;;;;;14.52;100.00;96976.59;6698529;21;20364;-81
2024/04/15 04:42:00;;;;;;;2.22;1.55;;;;;;;14.50;100.00;96977.97;6696927;21;20777;-81
2024/04/15 04:44:26;;;;;;;3.60;1.55;;;;;;;14.50;100.00;96977.97;6693710;21;20339;-81
2024/04/15 04:46:52;;;;;;;3.42;1.50;;;;;;;14.50;100.00;96964.66;6695964;21;20400;-80
2024/04/15 04:49:19;;;;;;;2.33;1.50;;;;;;;14.49;100.00;96971.84;6692115;21;20834;-80
2024/04/15 04:51:47;;;;;;;3.13;1.70;;;;;;;14.53;100.00;96969.41;6739378;21;20637;-79
2024/04/15 04:54:16;;;;;;;2.97;1.53;;;;;;;14.51;100.00;96961.69;6745453;21;20811;-80
2024/04/15 04:56:43;;;;;;;1.30;1.20;;;;;;;14.55;100.00;96972.59;6746451;21;20783;-80
2024/04/15 04:59:10;;;;;;;2.45;1.67;;;;;;;14.54;100.00;96974.44;6746245;21;20363;-80
2024/04/15 05:01:37;;;;;;;3.00;2.00;;;;;;;14.49;100.00;96979.06;6700793;21;20330;-80
2024/04/15 05:04:05;;;;;;;2.40;1.45;;;;;;;14.48;100.00;97001.44;6748285;21;20326;-81
2024/04/15 05:06:31;;;;;;;1.77;1.42;;;;;;;14.43;100.00;96998.84;6754555;21;20375;-81
2024/04/15 05:09:00;;;;;;;3.50;1.42;;;;;;;14.44;100.00;96993.22;6757927;21;20671;-81
2024/04/15 05:11:27;;;;;;;3.77;1.77;;;;;;;14.40;100.00;96984.22;6758579;21;20327;-84
2024/04/15 05:13:53;;;;;;;2.50;1.33;;;;;;;14.42;100.00;96994.59;6761959;21;20367;-83
2024/04/15 05:16:19;;;;;;;4.03;1.83;;;;;;;14.38;100.00;96990.88;6761908;21;20318;-83
2024/04/15 05:18:45;;;;;;;3.03;1.70;;;;;;;14.37;100.00;97006.03;6760908;21;20322;-82
2024/04/15 05:21:13;;;;;;;4.00;1.77;;;;;;;14.24;100.00;96994.22;6764365;21;20347;-83
2024/04/15 05:23:39;;;;;;;3.60;1.63;;;;;;;14.19;100.00;96996.16;6762672;21;20330;-82
2024/04/15 05:26:08;;;;;;;2.60;1.53;;;;;;;14.14;100.00;96993.53;6763064;21;20327;-82
2024/04/15 05:28:34;;;;;;;4.30;1.80;;;;;;;14.13;100.00;97000.75;6758646;21;20319;-82
2024/04/15 05:31:00;;;;;;;3.83;1.60;;;;;;;14.15;100.00;97003.91;6755862;21;20346;-81
2024/04/15 05:33:27;;;;;;;2.67;1.77;;;;;;;14.16;100.00;97012.69;6754484;21;20635;-80
2024/04/15 05:35:53;;;;;;;2.33;1.57;;;;;;;14.14;100.00;97015.63;6758322;21;20366;-81
2024/04/15 05:38:20;;;;;;;3.60;1.60;;;;;;;14.14;100.00;97012.16;6760829;21;20322;-81
2024/04/15 05:40:46;;;;;;;2.65;1.40;;;;;;;14.17;100.00;97011.59;6757193;21;20344;-79
2024/04/15 05:43:15;;;;;;;3.55;1.80;;;;;;;14.17;100.00;97007.09;6758618;21;20351;-82
2024/04/15 05:45:43;;;;;;;2.38;1.50;;;;;;;14.25;100.00;97008.31;6711998;21;20363;-81
2024/04/15 05:48:09;;;;;;;2.80;1.60;;;;;;;14.21;100.00;96997.44;6760005;21;20319;-82
2024/04/15 05:50:36;;;;;;;2.42;1.30;;;;;;;14.22;100.00;96996.38;6761763;21;20327;-83
2024/04/15 05:53:02;;;;;;;2.95;1.45;;;;;;;14.28;100.00;97008.53;6762981;21;20322;-83
2024/04/15 05:55:28;;;;;;;2.40;1.55;;;;;;;14.27;100.00;97006.97;6763442;21;20310;-80
2024/04/15 05:57:55;;;;;;;3.00;1.50;;;;;;;14.28;100.00;97003.22;6763200;21;20358;-80
2024/04/15 06:00:23;;;;;;;3.42;1.80;;;;;;;14.28;100.00;97008.53;6763720;21;20371;-82
2024/04/15 06:02:49;;;;;;;5.55;1.60;;;;;;;14.31;100.00;96997.34;6763740;21;20303;-81
2024/04/15 06:05:16;;;;;;;2.50;1.30;;;;;;;14.32;100.00;96993.59;6762944;21;20390;-82
2024/04/15 06:07:42;;;;;;;6.40;1.70;;;;;;;14.31;100.00;96978.69;6762533;21;20334;-81
2024/04/15 06:10:09;;;;;;;4.75;1.90;;;;;;;14.33;100.00;96989.84;6762409;21;20359;-81
2024/04/15 06:12:35;;;;;;;2.60;1.53;;;;;;;14.34;100.00;96999.44;6761140;21;20382;-82
2024/04/15 06:15:02;;;;;;;3.55;1.40;;;;;;;14.37;100.00;96997.25;6758729;21;20318;-82
2024/04/15 06:17:31;;;;;;;2.50;1.37;;;;;;;14.38;100.00;96983.69;6757029;21;20847;-82
2024/04/15 06:19:57;;;;;;;3.07;1.40;;;;;;;14.37;100.00;96997.25;6746169;21;20485;-83
2024/04/15 06:22:23;;;;;;;3.58;1.50;;;;;;;14.38;100.00;97002.34;6750796;21;20338;-82
2024/04/15 06:24:49;;;;;;;2.03;1.23;;;;;;;14.35;100.00;97002.91;6746815;21;20399;-81
2024/04/15 06:27:16;;;;;;;3.38;1.73;;;;;;;14.30;100.00;97003.72;6748884;21;20357;-81
2024/04/15 06:29:42;;;;;;;3.60;1.33;;;;;;;14.27;100.00;97008.84;6748004;21;20339;-81
2024/04/15 06:32:08;;;;;;;4.03;1.75;;;;;;;14.26;100.00;97004.59;6747335;21;20367;-82
2024/04/15 06:34:37;;;;;;;2.20;1.40;;;;;;;14.24;100.00;97006.75;6747345;21;20365;-82
2024/04/15 06:37:03;;;;;;;3.00;1.70;;;;;;;14.24;100.00;96996.88;6747880;21;20322;-81
2024/04/15 06:39:30;;;;;;;4.00;1.50;;;;;;;14.25;100.00;97011.00;6745643;21;20385;-80
2024/04/15 06:41:56;;;;;;;5.35;1.88;;;;;;;14.23;100.00;96992.63;6743854;21;20322;-78
2024/04/15 06:44:22;;;;;;;4.37;1.57;;;;;;;14.24;100.00;96990.75;6741469;21;20567;-79
2024/04/15 06:46:48;;;;;;;5.03;1.60;;;;;;;14.25;100.00;96987.03;6739278;21;20412;-78
2024/04/15 06:49:14;;;;;;;3.55;1.20;;;;;;;14.27;100.00;96995.53;6741790;21;20327;-77
2024/04/15 06:51:43;;;;;;;4.53;1.37;;;;;;;14.27;100.00;97004.31;6743268;21;20359;-80
2024/04/15 06:54:09;;;;;;;4.20;1.37;;;;;;;14.28;100.00;97000.56;6743555;21;20330;-80
2024/04/15 06:56:36;;;;;;;5.43;1.80;;;;;;;14.22;100.00;97003.56;6748242;21;20334;-81
2024/04/15 06:59:03;;;;;;;5.28;1.60;;;;;;;14.18;100.00;96995.34;6747067;21;20373;-81
2024/04/15 07:01:29;;;;;;;6.35;1.63;;;;;;;14.31;100.00;96997.34;6748151;21;20322;-80
2024/04/15 07:03:56;;;;;;;5.93;1.50;;;;;;;14.23;100.00;96989.97;6745938;21;20314;-79
2024/04/15 07:06:24;;;;;;;2.85;1.20;;;;;;;14.20;100.00;96992.41;6698616;21;20342;-79
2024/04/15 07:08:53;;;;;;;1.92;1.40;;;;;;;14.18;100.00;97007.88;6748905;21;20368;-81
2024/04/15 07:11:19;;;;;;;2.50;1.45;;;;;;;14.19;100.00;96999.59;6749855;21;20815;-80
2024/04/15 07:13:47;;;;;;;5.43;1.88;;;;;;;14.24;100.00;97012.06;6698645;21;20318;-80
2024/04/15 07:16:13;;;;;;;5.65;1.90;;;;;;;14.21;100.00;97012.63;6748445;21;20326;-79
2024/04/15 07:18:41;;;;;;;2.55;1.40;;;;;;;14.24;100.00;97009.41;6749770;21;20327;-81
2024/04/15 07:21:09;;;;;;;5.05;1.92;;;;;;;14.24;100.00;97007.53;6749954;21;20632;-79
2024/04/15 07:23:35;;;;;;;3.42;1.63;;;;;;;14.30;100.00;97016.25;6748835;21;20362;-80
2024/04/15 07:26:07;;;;;;;4.60;2.05;;;;;;;14.34;100.00;97010.09;6700616;21;20326;-81
2024/04/15 07:28:33;;;;;;;6.63;2.00;;;;;;;14.38;100.00;97020.97;6709143;21;20381;-81
2024/04/15 07:31:00;;;;;;;4.85;1.98;;;;;;;14.39;100.00;97005.78;6757069;21;20323;-79
2024/04/15 07:33:27;;;;;;;4.50;1.63;;;;;;;14.45;100.00;97009.97;6755897;21;20311;-80
2024/04/15 07:35:53;;;;;;;5.85;1.65;;;;;;;14.60;100.00;97009.78;6761379;21;20326;-81
2024/04/15 07:38:19;;;;;;;4.10;1.55;;;;;;;14.63;100.00;97006.56;6761776;21;20322;-81
2024/04/15 07:40:46;;;;;;;6.68;2.05;;;;;;;14.79;100.00;97005.31;6761845;21;20326;-79
2024/04/15 07:43:14;;;;;;;3.40;1.90;;;;;;;14.80;100.00;96996.22;6760892;21;20386;-81
2024/04/15 07:45:41;;;;;;;4.33;1.80;;;;;;;14.76;100.00;96992.53;6761298;21;20435;-80
2024/04/15 07:48:07;;;;;;;7.85;2.00;;;;;;;14.90;100.00;96988.09;6761125;21;20323;-80
2024/04/15 07:50:33;;;;;;;6.68;2.03;;;;;;;14.87;100.00;96980.69;6761003;21;20326;-80
2024/04/15 07:53:00;;;;;;;3.92;1.85;;;;;;;14.81;100.00;96978.38;6761660;21;20362;-81
2024/04/15 07:55:26;;;;;;;2.92;1.60;;;;;;;14.82;100.00;96972.72;6759418;21;20404;-80
2024/04/15 07:57:53;;;;;;;7.75;1.92;;;;;;;14.85;100.00;96977.50;6758044;21;20359;-80
2024/04/15 08:00:22;;;;;;;3.65;1.65;;;;;;;14.86;100.00;96978.28;6759715;21;20379;-81
2024/04/15 08:02:48;;;;;;;5.22;2.58;;;;;;;14.85;100.00;96969.50;6761291;21;20311;-80
2024/04/15 08:05:14;;;;;;;6.07;1.90;;;;;;;14.82;100.00;96964.75;6756897;21;20330;-80
2024/04/15 08:07:41;;;;;;;2.88;1.80;;;;;;;14.84;100.00;96967.13;6755169;21;20322;-80
2024/04/15 08:10:07;;;;;;;5.03;2.20;;;;;;;14.86;100.00;96971.09;6756939;21;20684;-80
2024/04/15 08:12:34;;;;;;;3.13;1.92;;;;;;;14.88;100.00;96970.81;6756271;21;20362;-82
2024/04/15 08:15:00;;;;;;;3.22;1.98;;;;;;;14.91;100.00;96964.88;6756509;21;20326;-79
2024/04/15 08:17:29;;;;;;;3.65;1.92;;;;;;;14.93;100.00;96963.53;6757952;21;20375;-81
2024/04/15 08:19:55;;;;;;;3.10;1.80;;;;;;;14.98;100.00;96965.31;6761338;21;20363;-82
2024/04/15 08:22:22;;;;;;;3.25;1.73;;;;;;;15.06;100.00;96959.34;6761454;21;20326;-81
2024/04/15 08:24:48;;;;;;;9.25;3.40;;;;;;;15.13;100.00;96956.28;6761276;21;20338;-80
2024/04/15 08:27:14;;;;;;;4.70;2.28;;;;;;;15.20;100.00;96962.84;6762154;21;20381;-82
2024/04/15 08:29:42;;;;;;;4.23;2.40;;;;;;;14.98;100.00;96939.47;6756061;21;20390;-81
2024/04/15 08:32:08;;;;;;;3.50;1.80;;;;;;;14.95;100.00;96944.59;6760621;21;20347;-82
2024/04/15 08:34:37;;;;;;;6.15;2.40;;;;;;;14.85;100.00;96937.53;6760258;21;20618;-81
2024/04/15 08:37:04;;;;;;;5.28;2.63;;;;;;;14.68;100.00;96939.91;6760496;21;20322;-82
2024/04/15 08:39:32;;;;;;;7.80;2.22;;;;;;;14.58;100.00;96934.72;6762897;21;20350;-79
2024/04/15 08:42:05;;;;;;;6.07;2.30;;;;;;;14.59;100.00;96929.09;6761394;21;20350;-79
2024/04/15 08:44:33;;;;;;;6.18;2.25;;;;;;;14.59;100.00;96930.97;6756898;21;20326;-79
2024/04/15 08:47:03;;;;;;;7.18;2.55;;;;;;;14.62;100.00;96930.41;6750489;21;20359;-79
2024/04/15 08:49:29;;;;;;;7.97;2.83;;;;;;;14.63;100.00;96924.78;6753795;21;20501;-81
2024/04/15 08:52:01;;;;;;;3.70;1.85;;;;;;;14.76;100.00;96911.81;6758116;21;20330;-82
2024/04/15 08:54:27;;;;;;;2.90;1.87;;;;;;;14.95;100.00;96908.06;6757389;21;20326;-82
2024/04/15 08:57:01;;;;;;;5.80;2.50;;;;;;;15.37;100.00;96911.66;6757536;21;20729;-80
2024/04/15 08:59:29;;;;;;;6.23;2.63;;;;;;;15.40;100.00;96905.75;6755154;21;20378;-80
2024/04/15 09:01:55;;;;;;;4.60;2.40;;;;;;;15.43;100.00;96910.47;6754451;21;20820;-82
2024/04/15 09:04:22;;;;;;;5.53;2.60;;;;;;;15.52;100.00;96913.25;6755902;21;20362;-80
2024/04/15 09:06:48;;;;;;;5.78;2.20;;;;;;;15.58;100.00;96910.22;6753163;21;20319;-80
2024/04/15 09:09:18;;;;;;;2.47;1.67;;;;;;;15.68;100.00;96907.38;6754599;21;20330;-80
2024/04/15 09:11:48;;;;;;;5.47;2.15;;;;;;;15.69;100.00;96908.97;6757360;21;20367;-81
2024/04/15 09:14:15;;;;;;;3.97;2.13;;;;;;;15.71;100.00;96904.13;6756948;21;20315;-82
2024/04/15 09:16:41;;;;;;;4.57;2.40;;;;;;;15.75;100.00;96899.00;6761538;21;20415;-81
2024/04/15 09:19:09;;;;;;;4.82;2.53;;;;;;;15.85;100.00;96896.94;6760122;21;20378;-80
2024/04/15 09:21:37;;;;;;;5.63;2.35;;;;;;;15.97;100.00;96888.41;6758608;21;20342;-80
2024/04/15 09:24:04;;;;;;;5.90;2.20;;;;;;;16.02;100.00;96898.19;6757789;21;20512;-82
2024/04/15 09:26:33;;;;;;;4.72;2.30;;;;;;;16.25;100.00;96899.84;6758597;21;20362;-81
2024/04/15 09:28:59;;;;;;;5.53;2.22;;;;;;;16.27;100.00;96895.81;6758187;21;20319;-80
2024/04/15 09:31:26;;;;;;;5.95;2.10;;;;;;;16.49;100.00;96895.06;6758512;21;20401;-82
2024/04/15 09:33:53;;;;;;;4.88;2.40;;;;;;;16.74;100.00;96885.72;6757412;21;20398;-82
2024/04/15 09:36:19;;;;;;;6.32;1.60;;;;;;;16.69;100.00;96879.72;6757226;21;20322;-82
2024/04/15 09:38:45;;;;;;;5.35;1.73;;;;;;;16.99;100.00;96878.97;6757230;21;20355;-80
2024/04/15 09:41:12;;;;;;;3.67;1.70;;;;;;;16.98;100.00;96877.44;6757591;21;20339;-81
2024/04/15 09:43:44;;;;;;;6.82;1.95;;;;;;;17.01;100.00;96874.91;6757376;21;20334;-81
2024/04/15 09:46:12;;;;;;;5.40;2.00;;;;;;;17.22;100.00;96877.09;6751794;21;20435;-80
2024/04/15 09:48:40;;;;;;;4.13;1.70;;;;;;;17.03;100.00;96877.28;6747439;21;20370;-81
2024/04/15 09:51:13;;;;;;;7.25;2.15;;;;;;;16.90;100.00;96883.50;6747863;21;20405;-81
2024/04/15 09:53:42;;;;;;;2.93;1.50;;;;;;;16.65;100.00;96882.19;6752781;21;20414;-80
2024/04/15 09:56:16;;;;;;;6.28;1.50;;;;;;;16.53;100.00;96874.69;6755533;21;20319;-82
2024/04/15 09:58:50;;;;;;;1.77;1.20;;;;;;;16.40;100.00;96870.16;6754707;21;20330;-82
2024/04/15 10:01:21;;;;;;;3.92;1.35;;;;;;;16.35;100.00;96867.59;6756132;21;20763;-81
2024/04/15 10:03:52;;;;;;;3.20;1.30;;;;;;;16.28;100.00;96861.88;6755950;21;20448;-81
2024/04/15 10:06:26;;;;;;;3.05;1.30;;;;;;;16.24;100.00;96852.88;6755338;21;20885;-81
2024/04/15 10:08:53;;;;;;;4.40;1.60;;;;;;;16.29;100.00;96839.44;6753871;21;20318;-81
2024/04/15 10:11:20;;;;;;;5.32;1.63;;;;;;;16.41;100.00;96836.22;6755820;21;20409;-80
2024/04/15 10:13:49;;;;;;;3.50;1.35;;;;;;;16.74;100.00;96831.50;6756388;21;20330;-81
2024/04/15 10:16:22;;;;;;;4.35;2.13;;;;;;;16.80;100.00;96828.38;6754209;21;20378;-79
2024/04/15 10:18:52;;;;;;;2.60;1.30;;;;;;;16.97;100.00;96811.69;6753424;21;20318;-79
2024/04/15 10:21:18;;;;;;;2.22;1.25;;;;;;;17.51;100.00;96809.75;6752490;21;20363;-79
2024/04/15 10:23:45;;;;;;;3.17;1.42;;;;;;;18.04;100.00;96807.69;6751283;21;20361;-80
2024/04/15 10:26:11;;;;;;;4.72;1.52;;;;;;;18.45;100.00;96796.53;6751714;21;20330;-81
2024/04/15 10:28:37;;;;;;;3.53;1.37;;;;;;;18.98;100.00;96790.03;6746427;21;20350;-80
2024/04/15 10:31:06;;;;;;;2.72;1.35;;;;;;;19.03;100.00;96778.34;6754633;21;20326;-82
2024/04/15 10:33:32;;;;;;;4.57;1.40;;;;;;;18.92;100.00;96792.13;6754430;21;20402;-80
2024/04/15 10:35:58;;;;;;;5.20;1.30;;;;;;;18.33;100.00;96790.25;6752960;21;20359;-80
2024/04/15 10:38:27;;;;;;;5.55;1.67;;;;;;;18.13;100.00;96788.97;6754949;21;20371;-81
2024/04/15 10:40:55;;;;;;;2.88;1.30;;;;;;;17.67;100.00;96797.53;6756514;21;20318;-82
2024/04/15 10:43:23;;;;;;;5.13;1.67;;;;;;;17.35;100.00;96782.59;6756475;21;20681;-81
2024/04/15 10:45:49;;;;;;;2.72;1.58;;;;;;;17.18;100.00;96787.88;6756159;21;20334;-81
2024/04/15 10:48:18;;;;;;;4.45;1.75;;;;;;;16.97;100.00;96782.25;6758150;21;20389;-80
2024/04/15 10:50:44;;;;;;;5.05;1.75;;;;;;;17.12;100.00;96773.84;6755530;21;20334;-80
2024/04/15 10:53:10;;;;;;;5.93;1.90;;;;;;;16.91;100.00;96781.59;6757604;21;20735;-81
2024/04/15 10:55:37;;;;;;;5.60;1.65;;;;;;;16.83;100.00;96779.69;6758735;21;20355;-82
2024/04/15 10:58:07;;;;;;;5.70;1.55;;;;;;;16.81;100.00;96776.50;6751779;21;20322;-80
2024/04/15 11:00:34;;;;;;;3.38;1.52;;;;;;;16.81;100.00;96763.16;6744218;21;20394;-81
2024/04/15 11:03:00;;;;;;;4.70;2.00;;;;;;;16.79;100.00;96764.53;6744295;21;20366;-80
2024/04/15 11:05:29;;;;;;;3.17;1.67;;;;;;;16.83;100.00;96760.16;6743082;21;20380;-79
2024/04/15 11:07:55;;;;;;;4.47;1.50;;;;;;;17.07;100.00;96746.44;6744302;21;20938;-81
2024/04/15 11:10:22;;;;;;;8.38;2.22;;;;;;;17.37;100.00;96742.94;6743970;21;20324;-78
2024/04/15 11:12:52;;;;;;;6.18;1.30;;;;;;;17.53;100.00;96737.94;6743531;21;20382;-81
2024/04/15 11:15:18;;;;;;;6.63;2.10;;;;;;;17.67;100.00;96719.91;6746959;21;20581;-80
2024/04/15 11:17:45;;;;;;;7.38;1.70;;;;;;;17.54;100.00;96704.72;6744122;21;20367;-80
2024/04/15 11:20:12;;;;;;;4.78;1.75;;;;;;;17.49;100.00;96704.88;6745030;21;20374;-80
2024/04/15 11:22:41;;;;;;;4.63;1.70;;;;;;;17.26;100.00;96696.97;6743649;21;20613;-79
2024/04/15 11:25:09;;;;;;;3.80;1.40;;;;;;;17.28;100.00;96688.63;6744067;21;20783;-77